Time;durP1;ratioP1;P1;durP2;ratioP2;P2;SDS_P1;SDS_P2;PMS_P1;PMS_P2;Temp;Humidity;BMP_temperature;BMP_pressure;BME280_temperature;BME280_humidity;BME280_pressure;Samples;Min_cycle;Max_cycle;Signal;HPM_P1;HPM_P2
2024/02/13 00:00:03;;;;;;;21.95;8.77;;;;;;;-141.50;100.00;63355.56;5081623;28;20640;-79
2024/02/13 00:02:39;;;;;;;23.23;9.55;;;;;;;-141.50;100.00;63355.56;5099095;28;20051;-79
2024/02/13 00:05:08;;;;;;;24.55;9.57;;;;;;;-141.50;100.00;63355.56;5108607;28;20093;-79
2024/02/13 00:07:39;;;;;;;20.52;9.30;;;;;;;-141.50;100.00;63355.56;5087524;28;20079;-79
2024/02/13 00:10:10;;;;;;;24.23;10.35;;;;;;;-141.50;100.00;63355.56;5116794;28;20937;-77
2024/02/13 00:12:38;;;;;;;25.52;10.07;;;;;;;-141.50;100.00;63355.56;5096538;28;20405;-77
2024/02/13 00:15:06;;;;;;;23.77;9.07;;;;;;;-141.50;100.00;63355.56;5099137;28;20112;-78
2024/02/13 00:17:34;;;;;;;26.60;10.35;;;;;;;-141.50;100.00;63355.56;5110160;28;20040;-78
2024/02/13 00:20:08;;;;;;;22.25;9.88;;;;;;;-141.50;100.00;63355.56;5119133;28;20086;-78
2024/02/13 00:22:35;;;;;;;23.50;9.50;;;;;;;-141.50;100.00;63355.56;5090060;28;20558;-79
2024/02/13 00:25:03;;;;;;;27.77;9.95;;;;;;;-141.50;100.00;63355.56;5069711;28;20055;-77
2024/02/13 00:27:32;;;;;;;26.73;9.82;;;;;;;-141.50;100.00;63355.56;5091349;28;20696;-79
2024/02/13 00:30:03;;;;;;;23.83;10.77;;;;;;;-141.50;100.00;63355.56;5074786;28;20068;-79
2024/02/13 00:32:31;;;;;;;29.55;11.30;;;;;;;-141.50;100.00;63355.56;5090591;28;20044;-80
2024/02/13 00:34:59;;;;;;;24.40;9.43;;;;;;;-141.50;100.00;63355.56;5085881;28;20048;-79
2024/02/13 00:37:26;;;;;;;25.38;10.23;;;;;;;-141.50;100.00;63355.56;5092702;28;20101;-79
2024/02/13 00:39:54;;;;;;;23.00;9.32;;;;;;;-141.50;100.00;63355.56;5086236;28;20108;-79
2024/02/13 00:42:21;;;;;;;27.73;10.48;;;;;;;-141.50;100.00;63355.56;5099261;28;20123;-80
2024/02/13 00:44:49;;;;;;;24.63;9.80;;;;;;;-141.50;100.00;63355.56;5063240;28;20044;-79
2024/02/13 00:47:17;;;;;;;25.70;10.18;;;;;;;-141.50;100.00;63355.56;5106741;28;20059;-78
2024/02/13 00:49:45;;;;;;;25.10;10.57;;;;;;;-141.50;100.00;63355.56;5113355;28;20413;-81
2024/02/13 00:52:11;;;;;;;26.45;10.73;;;;;;;-141.50;100.00;63355.56;5105040;28;20051;-80
2024/02/13 00:54:38;;;;;;;26.00;10.30;;;;;;;-141.50;100.00;63355.56;5091439;28;20040;-78
2024/02/13 00:57:05;;;;;;;24.92;10.20;;;;;;;-141.50;100.00;63355.56;5111682;28;20115;-79
2024/02/13 00:59:32;;;;;;;26.50;11.10;;;;;;;-141.50;100.00;63355.56;5076942;28;20094;-79
2024/02/13 01:01:59;;;;;;;31.08;10.52;;;;;;;-141.50;100.00;63355.56;5105686;28;20126;-79
2024/02/13 01:04:26;;;;;;;30.08;10.02;;;;;;;-141.50;100.00;63355.56;5110281;28;20100;-80
2024/02/13 01:06:55;;;;;;;24.63;10.40;;;;;;;-141.50;100.00;63355.56;5114176;28;20044;-79
2024/02/13 01:09:22;;;;;;;23.85;10.15;;;;;;;-141.50;100.00;63355.56;5087726;28;20080;-78
2024/02/13 01:11:49;;;;;;;25.30;10.38;;;;;;;-141.50;100.00;63355.56;5110424;28;20041;-79
2024/02/13 01:14:17;;;;;;;24.10;10.07;;;;;;;-141.50;100.00;63355.56;5113795;27;20064;-81
2024/02/13 01:16:44;;;;;;;23.30;9.98;;;;;;;-141.50;100.00;63355.56;5099287;28;20129;-80
2024/02/13 01:19:12;;;;;;;24.17;10.90;;;;;;;-141.50;100.00;63355.56;5084550;28;20079;-79
2024/02/13 01:21:39;;;;;;;26.10;9.90;;;;;;;-141.50;100.00;63355.56;5092875;28;20616;-78
2024/02/13 01:24:05;;;;;;;22.55;9.52;;;;;;;-141.50;100.00;63355.56;5090568;28;20056;-80
2024/02/13 01:26:32;;;;;;;22.33;10.18;;;;;;;-141.50;100.00;63355.56;5093297;28;20114;-80
2024/02/13 01:28:59;;;;;;;24.48;9.52;;;;;;;-141.50;100.00;63355.56;5083942;28;20100;-78
2024/02/13 01:31:26;;;;;;;29.17;10.43;;;;;;;-141.50;100.00;63355.56;5095103;28;20048;-81
2024/02/13 01:33:53;;;;;;;21.63;10.38;;;;;;;-141.50;100.00;63355.56;5081373;28;20055;-80
2024/02/13 01:36:20;;;;;;;25.35;10.02;;;;;;;-141.50;100.00;63355.56;5067208;28;20051;-78
2024/02/13 01:38:46;;;;;;;27.77;9.90;;;;;;;-141.50;100.00;63355.56;5112954;28;20047;-78
2024/02/13 01:41:14;;;;;;;24.80;9.50;;;;;;;-141.50;100.00;63355.56;5077683;28;20067;-79
2024/02/13 01:43:41;;;;;;;20.27;9.15;;;;;;;-141.50;100.00;63355.56;5098317;28;20056;-79
2024/02/13 01:46:08;;;;;;;26.08;9.88;;;;;;;-141.50;100.00;63355.56;5089730;28;20059;-78
2024/02/13 01:48:38;;;;;;;21.25;9.32;;;;;;;-141.50;100.00;63355.56;5097501;28;20044;-79
2024/02/13 01:51:06;;;;;;;22.05;8.85;;;;;;;-141.50;100.00;63355.56;5113783;28;20067;-77
2024/02/13 01:53:36;;;;;;;26.23;10.90;;;;;;;-141.50;100.00;63355.56;5113012;28;20107;-79
2024/02/13 01:56:05;;;;;;;21.38;8.70;;;;;;;-141.50;100.00;63355.56;5095240;28;20052;-81
2024/02/13 01:58:32;;;;;;;22.73;8.80;;;;;;;-141.50;100.00;63355.56;5116835;28;20043;-77
2024/02/13 02:01:00;;;;;;;21.05;9.43;;;;;;;-141.50;100.00;63355.56;5114622;28;20047;-78
2024/02/13 02:03:30;;;;;;;23.42;8.50;;;;;;;-141.50;100.00;63355.56;5096107;28;20054;-79
2024/02/13 02:05:59;;;;;;;20.75;8.38;;;;;;;-141.50;100.00;63355.56;5079969;28;20328;-79
2024/02/13 02:08:27;;;;;;;16.65;7.97;;;;;;;-141.50;100.00;63355.56;5111990;28;20122;-80
2024/02/13 02:10:58;;;;;;;17.42;7.97;;;;;;;-141.50;100.00;63355.56;5114858;28;20570;-77
2024/02/13 02:13:27;;;;;;;17.58;7.80;;;;;;;-141.50;100.00;63355.56;5112260;28;20060;-78
2024/02/13 02:15:55;;;;;;;17.50;7.47;;;;;;;-141.50;100.00;63355.56;5090513;28;20036;-78
2024/02/13 02:18:21;;;;;;;14.75;6.72;;;;;;;-141.50;100.00;63355.56;5103455;28;20054;-78
2024/02/13 02:20:49;;;;;;;19.23;7.90;;;;;;;-141.50;100.00;63355.56;5078645;28;20078;-78
2024/02/13 02:23:19;;;;;;;16.25;7.22;;;;;;;-141.50;100.00;63355.56;5112032;28;20500;-80
2024/02/13 02:25:47;;;;;;;17.58;7.25;;;;;;;-141.50;100.00;63355.56;5113009;28;20086;-80
2024/02/13 02:28:15;;;;;;;15.43;6.90;;;;;;;-141.50;100.00;63355.56;5097035;28;20065;-79
2024/02/13 02:30:42;;;;;;;13.65;6.40;;;;;;;-141.50;100.00;63355.56;5079117;28;20044;-80
2024/02/13 02:33:09;;;;;;;15.48;6.25;;;;;;;-141.50;100.00;63355.56;5112548;28;20750;-80
2024/02/13 02:35:36;;;;;;;13.93;6.70;;;;;;;-141.50;100.00;63355.56;5094531;28;20047;-79
2024/02/13 02:38:03;;;;;;;15.10;6.55;;;;;;;-141.50;100.00;63355.56;5085308;28;20059;-80
2024/02/13 02:40:29;;;;;;;14.43;6.72;;;;;;;-141.50;100.00;63355.56;5090708;28;20109;-81
2024/02/13 02:42:59;;;;;;;12.43;5.70;;;;;;;-141.50;100.00;63355.56;5111058;28;20048;-79
2024/02/13 02:45:27;;;;;;;14.13;6.03;;;;;;;-141.50;100.00;63355.56;5091691;28;20052;-78
2024/02/13 02:47:54;;;;;;;12.48;5.85;;;;;;;-141.50;100.00;63355.56;5111117;28;20043;-81
2024/02/13 02:50:22;;;;;;;13.90;6.32;;;;;;;-141.50;100.00;63355.56;5077654;28;20556;-76
2024/02/13 02:52:49;;;;;;;12.73;5.82;;;;;;;-141.50;100.00;63355.56;5107761;28;20044;-80
2024/02/13 02:55:18;;;;;;;14.65;5.43;;;;;;;-141.50;100.00;63355.56;5108904;28;20097;-80
2024/02/13 02:57:45;;;;;;;11.18;5.38;;;;;;;-141.50;100.00;63355.56;5114099;28;20047;-78
2024/02/13 03:00:14;;;;;;;14.20;5.45;;;;;;;-141.50;100.00;63355.56;5088729;28;20043;-80
2024/02/13 03:02:41;;;;;;;13.82;5.95;;;;;;;-141.50;100.00;63355.56;5108090;28;20067;-80
2024/02/13 03:05:09;;;;;;;13.38;5.72;;;;;;;-141.50;100.00;63355.56;5089387;28;20066;-78
2024/02/13 03:07:36;;;;;;;12.05;5.60;;;;;;;-141.50;100.00;63355.56;5127480;28;20065;-77
2024/02/13 03:10:10;;;;;;;12.82;5.18;;;;;;;-141.50;100.00;63355.56;5116500;28;20052;-78
2024/02/13 03:12:38;;;;;;;13.77;5.25;;;;;;;-141.50;100.00;63355.56;5118444;28;20163;-79
2024/02/13 03:15:06;;;;;;;14.32;5.43;;;;;;;-141.50;100.00;63355.56;5111084;28;20101;-80
2024/02/13 03:17:33;;;;;;;13.38;4.95;;;;;;;-141.50;100.00;63355.56;5105110;28;20748;-81
2024/02/13 03:20:00;;;;;;;9.65;4.85;;;;;;;-141.50;100.00;63355.56;5101997;28;20065;-80
2024/02/13 03:22:27;;;;;;;11.30;5.65;;;;;;;-141.50;100.00;63355.56;5089042;28;20054;-79
2024/02/13 03:24:54;;;;;;;12.18;5.38;;;;;;;-141.50;100.00;63355.56;5083106;28;20039;-80
2024/02/13 03:27:21;;;;;;;12.88;5.82;;;;;;;-141.50;100.00;63355.56;5107988;28;20101;-79
2024/02/13 03:29:48;;;;;;;10.25;4.78;;;;;;;-141.50;100.00;63355.56;5109573;28;20059;-79
2024/02/13 03:32:15;;;;;;;11.48;5.70;;;;;;;-141.50;100.00;63355.56;5091141;28;20059;-80
2024/02/13 03:34:42;;;;;;;11.52;5.50;;;;;;;-141.50;100.00;63355.56;5089690;28;20058;-80
2024/02/13 03:37:09;;;;;;;14.63;6.90;;;;;;;-141.50;100.00;63355.56;5094300;28;20144;-78
2024/02/13 03:39:37;;;;;;;10.07;5.03;;;;;;;-141.50;100.00;63355.56;5114182;28;20047;-80
2024/02/13 03:42:04;;;;;;;11.65;5.55;;;;;;;-141.50;100.00;63355.56;5091940;28;20465;-82
2024/02/13 03:44:31;;;;;;;11.93;5.90;;;;;;;-141.50;100.00;63355.56;5091703;28;20051;-80
2024/02/13 03:46:59;;;;;;;19.40;5.45;;;;;;;-141.50;100.00;63355.56;5091803;28;20063;-78
2024/02/13 03:49:26;;;;;;;13.60;5.97;;;;;;;-141.50;100.00;63355.56;5111378;28;20073;-79
2024/02/13 03:51:54;;;;;;;14.70;6.43;;;;;;;-141.50;100.00;63355.56;5090524;28;20036;-80
2024/02/13 03:54:20;;;;;;;12.73;5.63;;;;;;;-141.50;100.00;63355.56;5092068;28;20055;-78
2024/02/13 03:56:47;;;;;;;13.27;6.05;;;;;;;-141.50;100.00;63355.56;5111376;28;20197;-79
2024/02/13 03:59:15;;;;;;;12.98;5.85;;;;;;;-141.50;100.00;63355.56;5109961;28;20513;-80
2024/02/13 04:01:43;;;;;;;12.95;6.18;;;;;;;-141.50;100.00;63355.56;5087541;28;20043;-80
2024/02/13 04:04:10;;;;;;;18.60;6.30;;;;;;;-141.50;100.00;63355.56;5087484;28;20053;-78
2024/02/13 04:06:37;;;;;;;16.50;6.50;;;;;;;-141.50;100.00;63355.56;5092499;28;20440;-79
2024/02/13 04:09:07;;;;;;;12.07;6.00;;;;;;;-141.50;100.00;63355.56;5108430;28;20047;-78
2024/02/13 04:11:35;;;;;;;15.80;6.55;;;;;;;-141.50;100.00;63355.56;5091618;28;20047;-77
2024/02/13 04:14:02;;;;;;;15.30;5.95;;;;;;;-141.50;100.00;63355.56;5112402;28;20054;-79
2024/02/13 04:16:30;;;;;;;14.85;6.75;;;;;;;-141.50;100.00;63355.56;5078444;28;20044;-79
2024/02/13 04:18:58;;;;;;;13.75;6.20;;;;;;;-141.50;100.00;63355.56;5104006;28;20052;-80
2024/02/13 04:21:25;;;;;;;11.93;5.90;;;;;;;-141.50;100.00;63355.56;5080810;28;20051;-79
2024/02/13 04:23:52;;;;;;;19.02;6.30;;;;;;;-141.50;100.00;63355.56;5074165;28;20060;-78
2024/02/13 04:26:19;;;;;;;14.23;6.10;;;;;;;-141.50;100.00;63355.56;5115807;28;20055;-78
2024/02/13 04:29:02;;;;;;;17.63;5.93;;;;;;;-141.50;100.00;63355.56;5094417;28;20056;-79
2024/02/13 04:31:29;;;;;;;13.20;5.45;;;;;;;-141.50;100.00;63355.56;5088559;28;20044;-78
2024/02/13 04:33:55;;;;;;;13.10;5.60;;;;;;;-141.50;100.00;63355.56;5111467;28;20417;-79
2024/02/13 04:36:23;;;;;;;11.50;5.15;;;;;;;-141.50;100.00;63355.56;5109951;28;20047;-76
2024/02/13 04:38:50;;;;;;;12.52;5.07;;;;;;;-141.50;100.00;63355.56;5116185;28;20569;-79
2024/02/13 04:41:20;;;;;;;18.80;6.18;;;;;;;-141.50;100.00;63355.56;5109128;28;21259;-79
2024/02/13 04:43:47;;;;;;;11.70;5.53;;;;;;;-141.50;100.00;63355.56;5095637;28;20464;-78
2024/02/13 04:46:14;;;;;;;13.90;5.90;;;;;;;-141.50;100.00;63355.56;5092713;28;20067;-79
2024/02/13 04:48:41;;;;;;;14.52;6.15;;;;;;;-141.50;100.00;63355.56;5114431;28;20043;-78
2024/02/13 04:51:08;;;;;;;13.15;5.82;;;;;;;-141.50;100.00;63355.56;5110881;28;20059;-79
2024/02/13 04:53:37;;;;;;;11.40;5.25;;;;;;;-141.50;100.00;63355.56;5101740;28;20044;-80
2024/02/13 04:56:04;;;;;;;14.43;5.90;;;;;;;-141.50;100.00;63355.56;5108483;28;20043;-79
2024/02/13 04:58:32;;;;;;;12.52;5.65;;;;;;;-141.50;100.00;63355.56;5081860;28;20131;-79
2024/02/13 05:01:09;;;;;;;12.85;5.32;;;;;;;-141.50;100.00;63355.56;5088868;28;20230;-79
2024/02/13 05:03:39;;;;;;;14.93;6.32;;;;;;;-141.50;100.00;63355.56;5101197;28;20097;-79
2024/02/13 05:08:55;;;;;;;14.82;6.15;;;;;;;-141.50;100.00;63355.56;5112715;28;20047;-79
2024/02/13 05:11:23;;;;;;;11.93;5.47;;;;;;;-141.50;100.00;63355.56;5081947;28;20048;-79
2024/02/13 05:13:50;;;;;;;11.45;5.20;;;;;;;-141.50;100.00;63355.56;5088206;28;20066;-78
2024/02/13 05:16:18;;;;;;;12.73;6.15;;;;;;;-141.50;100.00;63355.56;5097044;28;20051;-78
2024/02/13 05:18:48;;;;;;;12.80;5.47;;;;;;;-141.50;100.00;63355.56;5096270;28;20048;-79
2024/02/13 05:21:19;;;;;;;14.65;5.55;;;;;;;-141.50;100.00;63355.56;5094698;28;20437;-79
2024/02/13 05:23:48;;;;;;;12.80;6.20;;;;;;;-141.50;100.00;63355.56;5095140;28;20044;-79
2024/02/13 05:26:17;;;;;;;13.18;5.85;;;;;;;-141.50;100.00;63355.56;5075365;28;20410;-78
2024/02/13 05:28:44;;;;;;;12.60;5.78;;;;;;;-141.50;100.00;63355.56;5090709;28;20055;-79
2024/02/13 05:31:11;;;;;;;10.13;5.75;;;;;;;-141.50;100.00;63355.56;5100377;28;20070;-77
2024/02/13 05:33:39;;;;;;;13.10;6.10;;;;;;;-141.50;100.00;63355.56;5105872;28;20513;-79
2024/02/13 05:36:09;;;;;;;13.38;5.88;;;;;;;-141.50;100.00;63355.56;5112144;28;20036;-79
2024/02/13 05:38:45;;;;;;;18.75;5.60;;;;;;;-141.50;100.00;63355.56;5085091;28;20088;-77
2024/02/13 05:41:12;;;;;;;15.13;6.10;;;;;;;-141.50;100.00;63355.56;5093373;28;20055;-79
2024/02/13 05:43:42;;;;;;;14.45;5.55;;;;;;;-141.50;100.00;63355.56;5113110;28;20401;-79
2024/02/13 05:46:08;;;;;;;14.80;6.07;;;;;;;-141.50;100.00;63355.56;5112359;28;20075;-77
2024/02/13 05:48:35;;;;;;;19.05;5.65;;;;;;;-141.50;100.00;63355.56;5096737;28;20059;-78
2024/02/13 05:51:04;;;;;;;13.93;5.40;;;;;;;-141.50;100.00;63355.56;5086723;28;20047;-80
2024/02/13 05:53:31;;;;;;;11.82;4.93;;;;;;;-141.50;100.00;63355.56;5068848;28;20554;-80
2024/02/13 05:55:59;;;;;;;14.38;5.68;;;;;;;-141.50;100.00;63355.56;5094819;28;20035;-81
2024/02/13 05:58:27;;;;;;;9.65;5.10;;;;;;;-141.50;100.00;63355.56;5087331;28;20052;-79
2024/02/13 06:00:56;;;;;;;13.05;6.03;;;;;;;-141.50;100.00;63355.56;5104448;28;20036;-80
2024/02/13 06:03:24;;;;;;;12.25;5.53;;;;;;;-141.50;100.00;63355.56;5071014;28;20158;-78
2024/02/13 06:05:52;;;;;;;15.63;4.97;;;;;;;-141.50;100.00;63355.56;5089867;28;20043;-80
2024/02/13 06:08:19;;;;;;;17.70;6.22;;;;;;;-141.50;100.00;63355.56;5112172;28;20071;-81
2024/02/13 06:10:46;;;;;;;15.63;5.68;;;;;;;-141.50;100.00;63355.56;5113115;28;20376;-78
2024/02/13 06:13:15;;;;;;;16.65;6.38;;;;;;;-141.50;100.00;63355.56;5093803;28;20100;-78
2024/02/13 06:15:41;;;;;;;14.35;6.35;;;;;;;-141.50;100.00;63355.56;5114720;28;20605;-79
2024/02/13 06:18:08;;;;;;;15.55;6.53;;;;;;;-141.50;100.00;63355.56;5110256;28;20066;-78
2024/02/13 06:20:35;;;;;;;15.23;6.13;;;;;;;-141.50;100.00;63355.56;5095577;28;20043;-79
2024/02/13 06:23:03;;;;;;;13.45;5.55;;;;;;;-141.50;100.00;63355.56;5078028;28;20055;-78
2024/02/13 06:25:30;;;;;;;13.15;6.22;;;;;;;-141.50;100.00;63355.56;5114271;28;20047;-80
2024/02/13 06:27:57;;;;;;;12.00;6.13;;;;;;;-141.50;100.00;63355.56;5095513;28;20047;-81
2024/02/13 06:30:24;;;;;;;11.65;5.63;;;;;;;-141.50;100.00;63355.56;5108562;28;20073;-80
2024/02/13 06:32:51;;;;;;;17.40;5.78;;;;;;;-141.50;100.00;63355.56;5111796;28;20052;-79
2024/02/13 06:35:19;;;;;;;15.88;6.20;;;;;;;-141.50;100.00;63355.56;5109550;28;20294;-79
2024/02/13 06:37:46;;;;;;;13.88;5.55;;;;;;;-141.50;100.00;63355.56;5096740;28;20052;-81
2024/02/13 06:40:14;;;;;;;17.45;6.65;;;;;;;-141.50;100.00;63355.56;5112785;28;20400;-78
2024/02/13 06:42:41;;;;;;;15.52;5.85;;;;;;;-141.50;100.00;63355.56;5096850;28;20052;-78
2024/02/13 06:45:09;;;;;;;15.15;5.85;;;;;;;-141.50;100.00;63355.56;5122004;28;20056;-79
2024/02/13 06:47:37;;;;;;;11.32;5.22;;;;;;;-141.50;100.00;63355.56;5114124;28;20123;-78
2024/02/13 06:50:11;;;;;;;12.00;5.25;;;;;;;-141.50;100.00;63355.56;5101881;28;20120;-78
2024/02/13 06:52:39;;;;;;;9.98;5.05;;;;;;;-141.50;100.00;63355.56;5070934;28;20054;-77
2024/02/13 06:55:10;;;;;;;12.30;5.28;;;;;;;-141.50;100.00;63355.56;5106550;28;20047;-78
2024/02/13 06:57:37;;;;;;;11.38;5.07;;;;;;;-141.50;100.00;63355.56;5097961;28;20060;-78
2024/02/13 07:00:09;;;;;;;16.08;5.20;;;;;;;-141.50;100.00;63355.56;5105104;28;20599;-78
2024/02/13 07:02:36;;;;;;;14.82;5.38;;;;;;;-141.50;100.00;63355.56;5089672;28;20067;-79
2024/02/13 07:05:08;;;;;;;14.10;5.30;;;;;;;-141.50;100.00;63355.56;5097344;28;20059;-79
2024/02/13 07:07:35;;;;;;;19.83;5.97;;;;;;;-141.50;100.00;63355.56;5078924;28;20506;-78
2024/02/13 07:10:14;;;;;;;16.65;4.82;;;;;;;-141.50;100.00;63355.56;5103066;27;20063;-78
2024/02/13 07:12:41;;;;;;;14.98;5.30;;;;;;;-141.50;100.00;63355.56;5118018;27;20096;-79
2024/02/13 07:15:09;;;;;;;12.88;5.53;;;;;;;-141.50;100.00;63355.56;5114371;27;20065;-78
2024/02/13 07:17:36;;;;;;;13.07;5.85;;;;;;;-141.50;100.00;63355.56;5110226;28;20051;-79
2024/02/13 07:20:18;;;;;;;10.60;4.97;;;;;;;-141.50;100.00;63355.56;5108551;28;20051;-79
2024/02/13 07:22:45;;;;;;;15.30;5.30;;;;;;;-141.50;100.00;63355.56;5098861;28;20056;-78
2024/02/13 07:25:14;;;;;;;12.00;5.00;;;;;;;-141.50;100.00;63355.56;5093516;28;20051;-79
2024/02/13 07:27:42;;;;;;;10.23;5.40;;;;;;;-141.50;100.00;63355.56;5094721;28;20060;-79
2024/02/13 07:30:14;;;;;;;11.50;5.05;;;;;;;-141.50;100.00;63355.56;5078632;28;20060;-77
2024/02/13 07:32:41;;;;;;;11.93;4.70;;;;;;;-141.50;100.00;63355.56;5085070;28;20059;-78
2024/02/13 07:35:09;;;;;;;15.10;5.88;;;;;;;-141.50;100.00;63355.56;5096405;28;20055;-79
2024/02/13 07:37:36;;;;;;;13.60;4.82;;;;;;;-141.50;100.00;63355.56;5081020;28;20153;-78
2024/02/13 07:40:03;;;;;;;10.20;4.95;;;;;;;-141.50;100.00;63355.56;5083395;28;20047;-77
2024/02/13 07:42:30;;;;;;;13.13;5.18;;;;;;;-141.50;100.00;63355.56;5084819;28;20052;-78
2024/02/13 07:44:58;;;;;;;10.10;5.05;;;;;;;-141.50;100.00;63355.56;5104066;28;20109;-77
2024/02/13 07:47:26;;;;;;;11.60;5.15;;;;;;;-141.50;100.00;63355.56;5106677;28;20071;-79
2024/02/13 07:49:54;;;;;;;11.95;5.13;;;;;;;-141.50;100.00;63355.56;5094951;28;20055;-78
2024/02/13 07:52:21;;;;;;;13.57;5.30;;;;;;;-141.50;100.00;63355.56;5096676;28;20047;-78
2024/02/13 07:54:48;;;;;;;13.73;5.20;;;;;;;-141.50;100.00;63355.56;5091940;28;20059;-79
2024/02/13 07:57:16;;;;;;;11.60;4.78;;;;;;;-141.50;100.00;63355.56;5100714;28;20056;-79
2024/02/13 07:59:44;;;;;;;9.82;4.93;;;;;;;-141.50;100.00;63355.56;5110538;28;20764;-79
2024/02/13 08:02:12;;;;;;;13.88;4.60;;;;;;;-141.50;100.00;63355.56;5096063;28;20597;-79
2024/02/13 08:04:40;;;;;;;15.35;4.70;;;;;;;-141.50;100.00;63355.56;5094340;28;20047;-79
2024/02/13 08:07:08;;;;;;;12.10;5.15;;;;;;;-141.50;100.00;63355.56;5100212;28;20086;-79
2024/02/13 08:09:35;;;;;;;11.20;4.88;;;;;;;-141.50;100.00;63355.56;5087895;28;20048;-79
2024/02/13 08:12:05;;;;;;;11.57;4.93;;;;;;;-141.50;100.00;63355.56;5086222;28;20090;-78
2024/02/13 08:14:33;;;;;;;10.57;4.40;;;;;;;-141.50;100.00;63355.56;5113183;28;20039;-80
2024/02/13 08:17:00;;;;;;;13.20;4.57;;;;;;;-141.50;100.00;63355.56;5091565;28;20136;-78
2024/02/13 08:19:27;;;;;;;10.38;4.55;;;;;;;-141.50;100.00;63355.56;5089919;28;20390;-79
2024/02/13 08:21:54;;;;;;;10.07;4.30;;;;;;;-141.50;100.00;63355.56;5088854;28;20062;-79
2024/02/13 08:24:20;;;;;;;11.25;4.60;;;;;;;-141.50;100.00;63355.56;5091945;28;20055;-78
2024/02/13 08:26:48;;;;;;;9.52;3.72;;;;;;;-141.50;100.00;63355.56;5107576;28;20067;-78
2024/02/13 08:29:16;;;;;;;9.18;3.85;;;;;;;-141.50;100.00;63355.56;5109564;28;20682;-79
2024/02/13 08:31:43;;;;;;;5.68;3.15;;;;;;;-141.50;100.00;63355.56;5110896;28;20127;-78
2024/02/13 08:34:09;;;;;;;8.80;3.80;;;;;;;-141.50;100.00;63355.56;5113635;28;20055;-77
2024/02/13 08:36:38;;;;;;;10.15;3.67;;;;;;;-141.50;100.00;63355.56;5113160;28;20077;-80
2024/02/13 08:39:06;;;;;;;10.63;4.47;;;;;;;-141.50;100.00;63355.56;5109210;28;20443;-78
2024/02/13 08:41:32;;;;;;;7.95;3.38;;;;;;;-141.50;100.00;63355.56;5108033;28;20048;-79
2024/02/13 08:43:59;;;;;;;10.05;3.60;;;;;;;-141.50;100.00;63355.56;5091103;28;20136;-78
2024/02/13 08:46:27;;;;;;;9.98;3.90;;;;;;;-141.50;100.00;63355.56;5116670;28;20039;-79
2024/02/13 08:48:53;;;;;;;8.45;3.17;;;;;;;-141.50;100.00;63355.56;5093974;28;20065;-78
2024/02/13 08:51:26;;;;;;;9.88;3.22;;;;;;;-141.50;100.00;63355.56;5085018;28;20082;-79
2024/02/13 08:53:53;;;;;;;9.93;3.30;;;;;;;-141.50;100.00;63355.56;5089663;28;20073;-79
2024/02/13 08:56:22;;;;;;;9.52;3.90;;;;;;;-141.50;100.00;63355.56;5101372;28;20051;-79
2024/02/13 08:58:52;;;;;;;12.88;4.15;;;;;;;-141.50;100.00;63355.56;5106450;28;20069;-78
2024/02/13 09:01:22;;;;;;;10.57;3.92;;;;;;;-141.50;100.00;63355.56;5105635;28;20060;-79
2024/02/13 09:03:49;;;;;;;10.43;4.00;;;;;;;-141.50;100.00;63355.56;5101585;28;20130;-78
2024/02/13 09:06:16;;;;;;;7.60;3.55;;;;;;;-141.50;100.00;63355.56;5112142;28;20484;-79
2024/02/13 09:08:44;;;;;;;13.90;4.35;;;;;;;-141.50;100.00;63355.56;5095155;28;20711;-79
2024/02/13 09:11:14;;;;;;;8.68;3.95;;;;;;;-141.50;100.00;63355.56;5109618;28;20081;-77
2024/02/13 09:13:42;;;;;;;8.43;3.95;;;;;;;-141.50;100.00;63355.56;5100484;28;20051;-79
2024/02/13 09:16:09;;;;;;;9.50;4.50;;;;;;;-141.50;100.00;63355.56;5113183;28;20059;-79
2024/02/13 09:18:40;;;;;;;11.80;4.70;;;;;;;-141.50;100.00;63355.56;5113466;28;20598;-78
2024/02/13 09:21:08;;;;;;;9.63;4.40;;;;;;;-141.50;100.00;63355.56;5113777;28;20143;-80
2024/02/13 09:23:37;;;;;;;10.85;4.68;;;;;;;-141.50;100.00;63355.56;5094866;28;20165;-77
2024/02/13 09:26:05;;;;;;;18.42;4.97;;;;;;;-141.50;100.00;63355.56;5114349;28;20055;-78
2024/02/13 09:28:32;;;;;;;8.45;4.05;;;;;;;-141.50;100.00;63355.56;5109278;28;20058;-79
2024/02/13 09:30:59;;;;;;;8.43;4.38;;;;;;;-141.50;100.00;63355.56;5109809;28;20047;-79
2024/02/13 09:33:26;;;;;;;12.00;4.80;;;;;;;-141.50;100.00;63355.56;5110984;28;20109;-77
2024/02/13 09:35:54;;;;;;;13.13;4.82;;;;;;;-141.50;100.00;63355.56;5096575;28;20113;-80
2024/02/13 09:38:21;;;;;;;10.75;5.43;;;;;;;-141.50;100.00;63355.56;5104908;28;20055;-79
2024/02/13 09:40:50;;;;;;;13.32;4.25;;;;;;;-141.50;100.00;63355.56;5113394;28;20055;-80
2024/02/13 09:43:19;;;;;;;10.45;4.30;;;;;;;-141.50;100.00;63355.56;5116563;28;20690;-78
2024/02/13 09:45:46;;;;;;;9.13;4.63;;;;;;;-141.50;100.00;63355.56;5095284;28;20048;-80
2024/02/13 09:48:23;;;;;;;11.43;4.70;;;;;;;-141.50;100.00;63355.56;5112077;28;20048;-79
2024/02/13 09:50:55;;;;;;;12.30;4.38;;;;;;;-141.50;100.00;63355.56;5115959;28;20055;-80
2024/02/13 09:53:29;;;;;;;10.63;4.13;;;;;;;-141.50;100.00;63355.56;5088238;28;20056;-81
2024/02/13 09:56:00;;;;;;;9.95;4.50;;;;;;;-141.50;100.00;63355.56;5114004;28;20035;-79
2024/02/13 09:58:27;;;;;;;10.88;4.85;;;;;;;-141.50;100.00;63355.56;5090882;28;20059;-78
2024/02/13 10:00:54;;;;;;;16.65;4.95;;;;;;;-141.50;100.00;63355.56;5087769;28;20111;-79
2024/02/13 10:03:29;;;;;;;13.20;4.60;;;;;;;-141.50;100.00;63355.56;5072564;28;20048;-79
2024/02/13 10:05:57;;;;;;;8.23;4.00;;;;;;;-141.50;100.00;63355.56;5103191;28;20776;-80
2024/02/13 10:08:27;;;;;;;10.05;3.58;;;;;;;-141.50;100.00;63355.56;5077011;28;20067;-77
2024/02/13 10:11:02;;;;;;;8.45;3.90;;;;;;;-141.50;100.00;63355.56;5094688;28;20050;-77
2024/02/13 10:13:39;;;;;;;11.27;4.00;;;;;;;-141.50;100.00;63355.56;5106334;28;20051;-79
2024/02/13 10:16:18;;;;;;;7.53;4.20;;;;;;;-141.50;100.00;63355.56;5081861;28;20289;-79
2024/02/13 10:18:54;;;;;;;7.07;3.88;;;;;;;-141.50;100.00;63355.56;5076239;28;20058;-78
2024/02/13 10:21:27;;;;;;;7.55;3.80;;;;;;;-141.50;100.00;63355.56;5111408;28;20051;-80
2024/02/13 10:24:13;;;;;;;9.88;3.95;;;;;;;-141.50;100.00;63355.56;5114865;28;20078;-78
2024/02/13 10:26:42;;;;;;;10.10;3.75;;;;;;;-141.50;100.00;63355.56;5106879;28;20060;-78
2024/02/13 10:29:08;;;;;;;6.70;3.47;;;;;;;-141.50;100.00;63355.56;5097298;28;20680;-76
2024/02/13 10:31:36;;;;;;;11.45;4.40;;;;;;;-141.50;100.00;63355.56;5088025;28;20051;-79
2024/02/13 10:34:07;;;;;;;11.02;3.72;;;;;;;-141.50;100.00;63355.56;5089516;28;20119;-78
2024/02/13 10:36:36;;;;;;;9.35;3.75;;;;;;;-141.50;100.00;63355.56;5111690;28;20055;-79
2024/02/13 10:39:08;;;;;;;12.45;3.58;;;;;;;-141.50;100.00;63355.56;5079694;28;20349;-80
2024/02/13 10:41:39;;;;;;;10.48;4.43;;;;;;;-141.50;100.00;63355.56;5078817;28;20052;-80
2024/02/13 10:44:10;;;;;;;13.10;5.28;;;;;;;-141.50;100.00;63355.56;5105521;28;20079;-79
2024/02/13 10:46:39;;;;;;;8.85;5.07;;;;;;;-141.50;100.00;63355.56;5066874;28;20049;-77
2024/02/13 10:49:09;;;;;;;10.65;5.57;;;;;;;-141.50;100.00;63355.56;5093790;28;20123;-79
2024/02/13 10:51:37;;;;;;;11.57;4.40;;;;;;;-141.50;100.00;63355.56;5113362;28;20101;-79
2024/02/13 10:54:07;;;;;;;8.50;3.92;;;;;;;-141.50;100.00;63355.56;5094484;28;20070;-78
2024/02/13 10:56:36;;;;;;;11.07;3.80;;;;;;;-141.50;100.00;63355.56;5093551;28;20047;-80
2024/02/13 10:59:04;;;;;;;8.43;3.17;;;;;;;-141.50;100.00;63355.56;5094088;28;20064;-80
2024/02/13 11:01:34;;;;;;;7.70;3.92;;;;;;;-141.50;100.00;63355.56;5067515;28;20048;-79
2024/02/13 11:04:02;;;;;;;9.57;4.47;;;;;;;-141.50;100.00;63355.56;5079006;28;20062;-82
2024/02/13 11:06:30;;;;;;;13.45;4.72;;;;;;;-141.50;100.00;63355.56;5104462;28;20054;-77
2024/02/13 11:08:57;;;;;;;12.15;4.72;;;;;;;-141.50;100.00;63355.56;5095806;28;20514;-77